Time;durP1;ratioP1;P1;durP2;ratioP2;P2;SDS_P1;SDS_P2;PMS_P1;PMS_P2;Temp;Humidity;BMP_temperature;BMP_pressure;BME280_temperature;BME280_humidity;BME280_pressure;Samples;Min_cycle;Max_cycle;Signal;HPM_P1;HPM_P2
2023/10/14 00:01:13;;;;;;;4.23;3.77;;;23.40;53.90;;;;;;4951011;28;21015;-89
2023/10/14 00:03:45;;;;;;;4.30;3.60;;;23.10;53.80;;;;;;4949495;28;20460;-89
2023/10/14 00:06:12;;;;;;;3.80;3.20;;;23.30;55.20;;;;;;4961028;28;20834;-89
2023/10/14 00:08:54;;;;;;;3.70;3.27;;;24.70;56.30;;;;;;4952413;28;20539;-89
2023/10/14 00:11:21;;;;;;;4.53;3.20;;;23.20;55.80;;;;;;4950470;28;20850;-89
2023/10/14 00:13:52;;;;;;;3.93;3.63;;;23.00;55.90;;;;;;4949807;28;20956;-89
2023/10/14 00:18:56;;;;;;;3.97;3.23;;;24.40;58.50;;;;;;4951821;28;20891;-89
2023/10/14 00:21:25;;;;;;;4.67;3.87;;;23.40;58.60;;;;;;4948324;28;20476;-89
2023/10/14 00:24:03;;;;;;;4.33;3.93;;;24.10;59.20;;;;;;4951312;28;20565;-89
2023/10/14 00:26:29;;;;;;;3.60;3.10;;;22.90;58.50;;;;;;4951265;28;20523;-89
2023/10/14 00:31:40;;;;;;;4.50;3.63;;;24.70;61.30;;;;;;4968782;28;20448;-89
2023/10/14 00:34:06;;;;;;;7.23;4.67;;;23.30;62.40;;;;;;4971243;28;20468;-89
2023/10/14 00:36:33;;;;;;;5.30;4.60;;;23.20;65.30;;;;;;4966441;28;20541;-89
2023/10/14 00:39:12;;;;;;;4.20;3.70;;;22.90;66.40;;;;;;4953488;28;20447;-89
2023/10/14 00:41:38;;;;;;;5.37;4.20;;;22.90;67.20;;;;;;4952382;28;20443;-89
2023/10/14 00:44:04;;;;;;;6.50;4.30;;;22.90;69.40;;;;;;4949628;28;20468;-89
2023/10/14 00:46:32;;;;;;;8.40;4.83;;;22.90;71.00;;;;;;4950273;28;21013;-89
2023/10/14 00:49:01;;;;;;;5.43;4.53;;;24.80;73.60;;;;;;4946956;28;20204;-89
2023/10/14 00:51:29;;;;;;;5.70;4.60;;;25.30;72.80;;;;;;4950865;28;20445;-89
2023/10/14 00:54:02;;;;;;;5.10;4.60;;;24.60;72.00;;;;;;4953231;28;20480;-89
2023/10/14 00:56:29;;;;;;;5.00;4.53;;;23.50;71.20;;;;;;4969629;28;20448;-89
2023/10/14 00:58:59;;;;;;;4.97;4.47;;;23.50;71.80;;;;;;4956846;28;20452;-89
2023/10/14 01:01:31;;;;;;;5.60;5.10;;;22.70;72.50;;;;;;4956721;28;20452;-89
2023/10/14 01:04:18;;;;;;;8.80;5.00;;;23.20;74.60;;;;;;4955436;28;20469;-89
2023/10/14 01:06:55;;;;;;;6.43;5.10;;;21.00;76.70;;;;;;4957132;28;20456;-89
2023/10/14 01:09:31;;;;;;;10.70;6.00;;;23.50;82.20;;;;;;4956756;28;20449;-89
2023/10/14 01:11:58;;;;;;;5.20;4.70;;;22.40;82.90;;;;;;4960322;28;20467;-89
2023/10/14 01:14:24;;;;;;;6.00;5.40;;;23.50;86.50;;;;;;4958158;28;20441;-89
2023/10/14 01:16:49;;;;;;;7.77;5.50;;;22.40;87.00;;;;;;4966290;28;20444;-89
2023/10/14 01:19:21;;;;;;;5.90;5.30;;;22.40;88.20;;;;;;4960447;28;20484;-89
2023/10/14 01:21:51;;;;;;;6.47;5.77;;;22.00;90.00;;;;;;4961459;28;20203;-88
2023/10/14 01:24:16;;;;;;;6.50;5.70;;;22.70;90.90;;;;;;4974846;28;20456;-88
2023/10/14 01:26:51;;;;;;;7.67;5.90;;;21.90;91.00;;;;;;4974992;28;20536;-89
2023/10/14 01:29:21;;;;;;;6.90;4.83;;;22.50;91.70;;;;;;4985369;28;20503;-89
2023/10/14 01:32:24;;;;;;;7.50;5.90;;;22.40;92.10;;;;;;4973127;28;20492;-89
2023/10/14 01:34:55;;;;;;;6.20;5.60;;;21.80;92.50;;;;;;4972286;28;20447;-89
2023/10/14 01:37:25;;;;;;;6.03;5.43;;;21.70;92.80;;;;;;4971015;28;20440;-88
2023/10/14 01:39:56;;;;;;;8.37;6.40;;;21.80;93.30;;;;;;4953637;28;20468;-89
2023/10/14 01:42:23;;;;;;;8.97;5.83;;;21.40;93.50;;;;;;4952804;28;20507;-89
2023/10/14 01:44:53;;;;;;;6.77;5.87;;;23.30;94.80;;;;;;4949167;28;20452;-89
2023/10/14 01:47:20;;;;;;;8.30;5.93;;;21.40;94.20;;;;;;4968659;28;20778;-89
2023/10/14 01:49:46;;;;;;;6.67;6.07;;;21.30;94.70;;;;;;4956178;28;20445;-89
2023/10/14 01:52:15;;;;;;;6.20;5.60;;;21.20;95.10;;;;;;4949720;28;20441;-89
2023/10/14 01:54:41;;;;;;;8.17;5.47;;;21.50;95.60;;;;;;4950056;28;20764;-88
2023/10/14 01:57:15;;;;;;;7.23;5.70;;;22.80;96.50;;;;;;4952499;28;20543;-89
2023/10/14 01:59:42;;;;;;;7.45;5.53;;;21.40;96.30;;;;;;4949688;28;20271;-89
2023/10/14 02:02:09;;;;;;;6.30;5.70;;;21.40;96.60;;;;;;4948587;28;20374;-89
2023/10/14 02:04:36;;;;;;;7.50;5.50;;;21.40;96.70;;;;;;4953131;28;20271;-89
2023/10/14 02:07:18;;;;;;;6.63;6.00;;;21.20;96.70;;;;;;4953212;28;20219;-89
2023/10/14 02:09:43;;;;;;;6.07;5.45;;;21.40;96.90;;;;;;4964036;28;20444;-89
2023/10/14 02:12:11;;;;;;;7.37;6.67;;;20.90;96.90;;;;;;4978204;28;20187;-89
2023/10/14 02:14:57;;;;;;;5.97;5.40;;;20.90;97.10;;;;;;4972802;28;20192;-89
2023/10/14 02:17:25;;;;;;;6.25;5.25;;;20.90;97.20;;;;;;4955391;28;20853;-89
2023/10/14 02:19:54;;;;;;;6.68;6.07;;;20.80;97.40;;;;;;4954121;28;20551;-89
2023/10/14 02:22:22;;;;;;;8.50;6.40;;;21.50;97.80;;;;;;4952772;28;20582;-89
2023/10/14 02:24:48;;;;;;;6.68;5.97;;;21.20;97.70;;;;;;4955338;28;20188;-89
2023/10/14 02:27:14;;;;;;;6.50;5.90;;;20.80;97.60;;;;;;4952344;28;20216;-89
2023/10/14 02:29:46;;;;;;;7.00;5.80;;;21.00;97.80;;;;;;4953220;28;20447;-89
2023/10/14 02:32:13;;;;;;;6.85;6.15;;;21.70;98.20;;;;;;4952172;28;20883;-89
2023/10/14 02:34:45;;;;;;;7.00;6.30;;;21.30;98.00;;;;;;4966475;28;20677;-89
2023/10/14 02:37:14;;;;;;;6.00;5.50;;;20.80;97.80;;;;;;4971242;28;20440;-89
2023/10/14 02:39:43;;;;;;;6.90;5.97;;;20.60;97.70;;;;;;4969393;28;20449;-89
2023/10/14 02:42:09;;;;;;;7.95;5.35;;;22.50;98.60;;;;;;4969927;28;20440;-89
2023/10/14 02:44:44;;;;;;;7.17;6.43;;;21.30;98.00;;;;;;4950652;28;20211;-89
2023/10/14 02:47:10;;;;;;;7.60;5.30;;;21.20;97.90;;;;;;4941714;28;20217;-89
2023/10/14 02:49:37;;;;;;;10.18;6.43;;;21.10;97.90;;;;;;4954331;28;20228;-89
2023/10/14 02:52:18;;;;;;;6.70;5.93;;;20.80;97.40;;;;;;4952353;28;20205;-89
2023/10/14 02:54:53;;;;;;;7.25;5.82;;;20.90;97.70;;;;;;4955764;28;20447;-89
2023/10/14 02:59:46;;;;;;;6.47;5.90;;;21.30;97.90;;;;;;4951196;28;20463;-89
2023/10/14 03:02:23;;;;;;;7.07;5.87;;;20.90;97.20;;;;;;4951499;28;20288;-89
2023/10/14 03:09:49;;;;;;;7.30;6.57;;;21.30;98.30;;;;;;4957228;28;20300;-89
2023/10/14 03:12:18;;;;;;;8.63;6.50;;;21.20;98.10;;;;;;4954538;28;20594;-90
2023/10/14 03:14:52;;;;;;;6.50;6.00;;;21.20;97.60;;;;;;4975362;28;20599;-89
2023/10/14 03:17:24;;;;;;;6.43;5.80;;;21.00;97.40;;;;;;4952888;28;20823;-88
2023/10/14 03:19:53;;;;;;;6.80;5.70;;;20.90;97.20;;;;;;4933405;28;20456;-89
2023/10/14 03:22:25;;;;;;;6.83;6.23;;;20.90;97.10;;;;;;4951456;28;20565;-89
2023/10/14 03:24:51;;;;;;;7.15;6.45;;;21.20;97.10;;;;;;4953806;28;20449;-89
2023/10/14 03:27:18;;;;;;;6.37;5.87;;;22.50;97.80;;;;;;4951055;28;20208;-89
2023/10/14 03:29:52;;;;;;;6.07;5.47;;;21.20;97.20;;;;;;4952566;28;20193;-89
2023/10/14 03:32:18;;;;;;;6.77;6.07;;;21.40;97.30;;;;;;4952910;28;21034;-89
2023/10/14 03:34:45;;;;;;;8.07;6.63;;;21.40;97.30;;;;;;4953569;28;20444;-89
2023/10/14 03:37:25;;;;;;;7.47;5.70;;;21.90;97.60;;;;;;4951218;28;20208;-89
2023/10/14 03:40:35;;;;;;;6.60;6.00;;;21.30;97.30;;;;;;4953293;28;20194;-88
2023/10/14 03:42:51;;;;;;;5.97;5.47;;;21.00;97.30;;;;;;4957039;28;20519;-89
2023/10/14 03:45:21;;;;;;;8.27;6.10;;;20.90;97.40;;;;;;4953152;28;20473;-89
2023/10/14 03:47:52;;;;;;;9.20;6.05;;;22.10;98.00;;;;;;4953702;28;20786;-89
2023/10/14 03:50:23;;;;;;;8.35;6.55;;;21.20;97.60;;;;;;4969625;28;20260;-89
2023/10/14 03:52:51;;;;;;;7.17;5.90;;;21.00;97.30;;;;;;4971004;28;20200;-90
2023/10/14 03:55:19;;;;;;;6.80;6.10;;;21.70;97.50;;;;;;4976424;28;20482;-89
2023/10/14 03:57:45;;;;;;;7.27;6.57;;;21.60;97.40;;;;;;4970481;28;20480;-89
2023/10/14 04:00:24;;;;;;;7.60;5.87;;;21.50;97.20;;;;;;4971614;28;20500;-89
2023/10/14 04:02:50;;;;;;;8.30;5.90;;;21.20;97.00;;;;;;4973226;28;20267;-89
2023/10/14 04:05:19;;;;;;;7.23;5.83;;;21.80;97.30;;;;;;4957165;28;20791;-89
2023/10/14 04:07:44;;;;;;;7.10;6.40;;;21.20;97.10;;;;;;4957169;28;20185;-89
2023/10/14 04:10:11;;;;;;;11.63;6.17;;;21.50;97.40;;;;;;4952843;28;20188;-89
2023/10/14 04:12:38;;;;;;;7.60;6.53;;;21.60;97.50;;;;;;4961336;28;20196;-89
2023/10/14 04:17:40;;;;;;;8.53;6.50;;;21.20;97.50;;;;;;4976513;28;20446;-89
2023/10/14 04:25:19;;;;;;;9.05;6.07;;;21.50;97.90;;;;;;4954839;28;20995;-89
2023/10/14 04:30:21;;;;;;;13.83;7.30;;;21.10;97.70;;;;;;4954796;28;20193;-89
2023/10/14 04:32:48;;;;;;;6.87;6.17;;;21.50;97.80;;;;;;4948052;28;20471;-89
2023/10/14 04:35:23;;;;;;;9.90;6.10;;;21.80;98.00;;;;;;4949427;28;20456;-88
2023/10/14 04:37:51;;;;;;;6.57;5.67;;;22.00;98.10;;;;;;4951490;28;20458;-89
2023/10/14 04:45:52;;;;;;;7.55;6.43;;;21.20;98.30;;;;;;4955137;28;20480;-89
2023/10/14 04:49:07;;;;;;;9.48;6.22;;;21.20;99.90;;;;;;4950418;28;20223;-89
2023/10/14 04:51:18;;;;;;;8.15;6.55;;;21.20;99.90;;;;;;4941977;28;20204;-89
2023/10/14 04:53:44;;;;;;;7.43;5.85;;;21.00;99.90;;;;;;4960990;28;20300;-89
2023/10/14 04:56:10;;;;;;;7.88;7.07;;;21.00;99.90;;;;;;4955277;28;20499;-89
2023/10/14 04:58:40;;;;;;;6.80;6.20;;;20.90;99.90;;;;;;4950022;28;20192;-89
2023/10/14 05:01:09;;;;;;;7.10;6.10;;;20.70;99.90;;;;;;4948793;28;21027;-89
2023/10/14 05:03:35;;;;;;;6.10;5.57;;;20.20;99.90;;;;;;4936028;28;20213;-89
2023/10/14 05:06:21;;;;;;;6.27;5.77;;;20.30;99.90;;;;;;4960286;28;20215;-89
2023/10/14 05:08:51;;;;;;;8.73;6.03;;;20.00;99.90;;;;;;4961130;28;20184;-89
2023/10/14 05:11:18;;;;;;;7.38;6.45;;;20.30;99.90;;;;;;4964141;28;20185;-89
2023/10/14 05:13:56;;;;;;;9.02;6.15;;;20.00;99.90;;;;;;4956786;28;20219;-89
2023/10/14 05:16:21;;;;;;;6.45;5.85;;;20.30;99.90;;;;;;4968024;28;20224;-89
2023/10/14 05:19:04;;;;;;;7.63;6.17;;;20.30;99.90;;;;;;4974504;28;20208;-88
2023/10/14 05:21:36;;;;;;;6.90;5.70;;;22.00;99.90;;;;;;4973925;28;20185;-89
2023/10/14 05:24:08;;;;;;;13.50;6.93;;;21.00;99.90;;;;;;4960914;28;20248;-89
2023/10/14 05:26:44;;;;;;;9.32;6.35;;;19.90;99.90;;;;;;4949515;28;20628;-89
2023/10/14 05:29:19;;;;;;;7.93;6.35;;;20.00;99.90;;;;;;4958785;28;20185;-89
2023/10/14 05:31:49;;;;;;;6.35;5.75;;;20.20;99.90;;;;;;4971532;28;20204;-89
2023/10/14 05:34:24;;;;;;;6.03;5.30;;;19.50;99.90;;;;;;4967272;28;20296;-89
2023/10/14 05:36:52;;;;;;;7.05;6.32;;;19.90;99.90;;;;;;4949664;29;20256;-89
2023/10/14 05:39:20;;;;;;;12.23;6.15;;;20.30;99.90;;;;;;4953273;28;20665;-89
2023/10/14 05:41:48;;;;;;;6.32;5.65;;;20.20;99.90;;;;;;4953118;28;20243;-89
2023/10/14 05:44:14;;;;;;;6.50;5.65;;;20.00;99.90;;;;;;4951513;28;20251;-89
2023/10/14 05:46:41;;;;;;;12.10;10.00;;;19.80;99.90;;;;;;4953216;28;20213;-89
2023/10/14 05:49:07;;;;;;;7.22;5.75;;;19.80;99.90;;;;;;4952790;28;20181;-89
2023/10/14 05:51:33;;;;;;;8.90;6.13;;;20.00;99.90;;;;;;4949043;28;20195;-88
2023/10/14 05:54:04;;;;;;;6.53;5.50;;;20.00;99.90;;;;;;4947692;28;20208;-90
2023/10/14 05:56:29;;;;;;;8.27;6.47;;;21.20;99.90;;;;;;4950148;28;20189;-90
2023/10/14 05:58:55;;;;;;;8.23;5.87;;;19.90;99.90;;;;;;4949730;28;20185;-90
2023/10/14 06:01:20;;;;;;;7.60;5.60;;;20.80;99.90;;;;;;4947890;28;20187;-89
2023/10/14 06:03:47;;;;;;;8.50;5.87;;;19.80;99.90;;;;;;4952509;28;20204;-88
2023/10/14 06:06:21;;;;;;;6.30;5.60;;;19.90;99.90;;;;;;4952347;28;20200;-88
2023/10/14 06:08:47;;;;;;;6.35;5.70;;;19.70;99.90;;;;;;4951894;28;20245;-89
2023/10/14 06:11:14;;;;;;;5.87;5.40;;;20.00;99.90;;;;;;4951906;28;21245;-87
2023/10/14 06:13:39;;;;;;;5.15;4.65;;;19.70;99.90;;;;;;4952399;28;20207;-87
2023/10/14 06:16:10;;;;;;;6.10;5.50;;;19.70;99.90;;;;;;4947387;28;20190;-87
2023/10/14 06:18:39;;;;;;;8.13;5.40;;;19.90;99.90;;;;;;4951710;28;20189;-88
2023/10/14 06:21:06;;;;;;;8.70;6.68;;;19.70;99.90;;;;;;4957885;28;20189;-87
2023/10/14 06:23:33;;;;;;;7.38;6.05;;;20.10;99.90;;;;;;4961443;28;20243;-89
2023/10/14 06:25:59;;;;;;;7.05;5.63;;;19.70;99.90;;;;;;4971958;28;20240;-88
2023/10/14 06:28:25;;;;;;;6.30;5.70;;;20.00;99.90;;;;;;4967960;28;20192;-88
2023/10/14 06:30:51;;;;;;;8.00;6.00;;;20.20;99.90;;;;;;4973739;28;20520;-89
2023/10/14 06:33:16;;;;;;;7.00;5.40;;;20.00;99.90;;;;;;4954370;28;20240;-88
2023/10/14 06:35:42;;;;;;;8.33;5.40;;;20.20;99.90;;;;;;4957494;28;20192;-89
2023/10/14 06:38:17;;;;;;;6.57;5.07;;;20.10;99.90;;;;;;4953167;28;20270;-89
2023/10/14 06:40:44;;;;;;;5.55;4.93;;;20.10;99.90;;;;;;4951023;28;20244;-89
2023/10/14 06:43:10;;;;;;;11.52;5.55;;;20.40;99.90;;;;;;4952037;28;20212;-88
2023/10/14 06:45:37;;;;;;;7.97;5.22;;;20.50;99.90;;;;;;4952476;28;20212;-88
2023/10/14 06:48:05;;;;;;;5.00;4.50;;;20.40;99.90;;;;;;4957753;28;20185;-85
2023/10/14 06:50:32;;;;;;;9.10;5.68;;;20.10;99.90;;;;;;4968239;28;20215;-86
2023/10/14 06:53:01;;;;;;;5.88;4.80;;;20.60;99.90;;;;;;4938031;28;20214;-88
2023/10/14 06:55:42;;;;;;;7.38;5.20;;;20.60;99.90;;;;;;4956062;28;20185;-89
2023/10/14 06:58:11;;;;;;;7.18;4.97;;;20.30;99.90;;;;;;4954698;28;20188;-89
2023/10/14 07:00:40;;;;;;;7.88;6.05;;;20.20;99.90;;;;;;4976989;28;20189;-88
2023/10/14 07:03:12;;;;;;;5.90;5.00;;;20.10;99.90;;;;;;4974343;28;20185;-89
2023/10/14 07:08:21;;;;;;;10.57;5.10;;;20.50;99.90;;;;;;4963209;28;20189;-89
2023/10/14 07:10:50;;;;;;;14.38;4.60;;;20.40;99.90;;;;;;4975370;28;20197;-91
2023/10/14 07:13:23;;;;;;;5.97;5.18;;;20.50;99.90;;;;;;4981635;28;20220;-91
2023/10/14 07:15:50;;;;;;;6.35;4.50;;;20.90;99.90;;;;;;4965301;28;20197;-90
2023/10/14 07:18:22;;;;;;;5.40;4.13;;;20.80;99.90;;;;;;4958772;28;20228;-93
2023/10/14 07:21:03;;;;;;;4.93;4.43;;;20.90;99.90;;;;;;4959118;28;20527;-92
2023/10/14 07:23:34;;;;;;;4.47;4.07;;;20.80;99.90;;;;;;4952716;28;20292;-92
2023/10/14 07:26:11;;;;;;;4.50;4.05;;;21.20;99.50;;;;;;4954006;28;20205;-91
2023/10/14 07:28:51;;;;;;;8.13;5.13;;;21.20;99.00;;;;;;4951398;28;20579;-90
2023/10/14 07:31:17;;;;;;;4.20;3.80;;;21.70;98.80;;;;;;4954089;28;20456;-91
2023/10/14 07:33:44;;;;;;;6.80;4.63;;;21.90;98.80;;;;;;4953184;28;20829;-90
2023/10/14 07:36:11;;;;;;;5.67;3.67;;;21.50;98.60;;;;;;4955134;28;20698;-92
2023/10/14 07:38:37;;;;;;;4.60;3.93;;;21.60;98.30;;;;;;4953242;28;20444;-93
2023/10/14 07:41:04;;;;;;;5.10;3.90;;;21.70;98.30;;;;;;4954402;28;20528;-90
2023/10/14 07:43:33;;;;;;;7.20;4.90;;;21.40;97.60;;;;;;4954456;28;20472;-93
2023/10/14 07:46:00;;;;;;;3.93;3.53;;;21.50;97.50;;;;;;4956162;28;20461;-91
2023/10/14 07:48:26;;;;;;;5.17;4.07;;;22.00;97.70;;;;;;4950391;28;20436;-91
2023/10/14 07:50:56;;;;;;;4.53;3.57;;;21.70;97.20;;;;;;4954376;28;20441;-91
2023/10/14 07:53:25;;;;;;;3.43;3.00;;;21.90;96.60;;;;;;4953085;28;20515;-90
2023/10/14 07:55:56;;;;;;;7.27;3.47;;;21.60;96.20;;;;;;4953842;28;20451;-91
2023/10/14 07:58:26;;;;;;;5.10;4.47;;;21.80;96.40;;;;;;4954417;29;20476;-90
2023/10/14 08:00:54;;;;;;;4.63;3.80;;;22.00;96.50;;;;;;4948695;28;20452;-91
2023/10/14 08:03:25;;;;;;;4.97;4.47;;;21.90;96.60;;;;;;4950954;28;20552;-91
2023/10/14 08:05:59;;;;;;;5.20;3.53;;;21.50;96.70;;;;;;4956695;28;20885;-91
2023/10/14 08:08:30;;;;;;;9.17;3.40;;;21.40;96.80;;;;;;4939503;28;20451;-90
2023/10/14 08:10:57;;;;;;;5.10;3.08;;;21.40;96.80;;;;;;4952665;28;20519;-91
2023/10/14 08:13:25;;;;;;;8.50;4.10;;;21.60;96.80;;;;;;4950833;28;20205;-92
2023/10/14 08:15:52;;;;;;;4.75;4.32;;;21.60;97.00;;;;;;4925937;29;20441;-91
2023/10/14 08:18:23;;;;;;;7.73;3.63;;;21.40;97.40;;;;;;4957285;28;20197;-91
2023/10/14 08:20:49;;;;;;;7.72;4.30;;;21.10;97.20;;;;;;4954640;28;20877;-92
2023/10/14 08:23:15;;;;;;;5.05;3.00;;;20.80;97.20;;;;;;4959147;28;20551;-92
2023/10/14 08:25:44;;;;;;;3.60;2.57;;;21.20;97.40;;;;;;4961162;28;20220;-92
2023/10/14 08:28:10;;;;;;;4.60;3.00;;;21.60;97.60;;;;;;4930843;28;20236;-91
2023/10/14 08:30:45;;;;;;;3.27;2.43;;;21.10;97.40;;;;;;4960628;28;20507;-92
2023/10/14 08:33:12;;;;;;;5.03;2.50;;;21.30;97.10;;;;;;4961010;28;20886;-93
2023/10/14 08:35:41;;;;;;;4.17;2.90;;;21.70;97.40;;;;;;4967391;28;20463;-93
2023/10/14 08:38:11;;;;;;;2.85;2.25;;;21.40;96.90;;;;;;4959418;28;20456;-93
2023/10/14 08:40:43;;;;;;;4.63;1.80;;;21.60;96.60;;;;;;5022181;23;20242;-92
2023/10/14 08:43:10;;;;;;;2.50;2.20;;;21.20;96.20;;;;;;4955281;28;20493;-93
2023/10/14 08:45:39;;;;;;;3.33;2.10;;;19.60;95.20;;;;;;4951247;29;20197;-93
2023/10/14 08:48:08;;;;;;;2.90;2.37;;;21.40;96.20;;;;;;4941777;29;20445;-92
2023/10/14 08:58:22;;;;;;;5.93;2.47;;;21.70;95.90;;;;;;5034685;23;20575;-93
2023/10/14 09:00:50;;;;;;;2.63;2.10;;;20.20;94.70;;;;;;4980639;28;20542;-92
2023/10/14 09:03:17;;;;;;;2.80;1.73;;;22.50;95.60;;;;;;4965418;28;20552;-94
2023/10/14 09:05:44;;;;;;;3.07;2.20;;;22.10;94.70;;;;;;4952918;28;20513;-91
2023/10/14 09:08:14;;;;;;;3.53;2.00;;;22.20;95.10;;;;;;4953632;28;20484;-93
2023/10/14 09:10:42;;;;;;;3.07;2.00;;;22.30;95.00;;;;;;4943663;28;20483;-93
2023/10/14 09:13:11;;;;;;;4.17;2.03;;;24.90;96.00;;;;;;4959608;28;20456;-94
2023/10/14 09:15:43;;;;;;;2.93;2.50;;;22.30;94.30;;;;;;4964530;28;20977;-91
2023/10/14 09:18:28;;;;;;;1.10;1.00;;;23.10;94.90;;;;;;4951493;28;20535;-92
2023/10/14 09:20:54;;;;;;;1.97;0.87;;;23.30;96.70;;;;;;4951934;28;20560;-93
2023/10/14 09:23:39;;;;;;;2.15;0.95;;;18.70;94.80;;;;;;4953528;28;20555;-93
2023/10/14 09:26:09;;;;;;;0.98;0.90;;;22.70;98.70;;;;;;4950752;28;20213;-90
2023/10/14 09:28:40;;;;;;;6.07;2.05;;;20.10;99.90;;;;;;4950376;28;20252;-91
2023/10/14 09:31:08;;;;;;;5.38;2.35;;;21.40;99.90;;;;;;4959722;28;20184;-92
2023/10/14 09:33:37;;;;;;;1.65;1.40;;;20.60;99.90;;;;;;4985938;28;20192;-89
2023/10/14 09:36:05;;;;;;;1.65;1.27;;;19.20;99.90;;;;;;4967989;28;20694;-91
2023/10/14 09:38:34;;;;;;;13.90;12.55;;;18.60;99.90;;;;;;4934610;28;20193;-92
2023/10/14 09:41:04;;;;;;;1.40;1.30;;;18.30;99.90;;;;;;4930381;28;20201;-87
2023/10/14 09:43:32;;;;;;;1.95;1.33;;;18.40;99.90;;;;;;4950197;28;20213;-87
2023/10/14 09:46:00;;;;;;;2.10;1.90;;;18.00;99.90;;;;;;4948017;28;20201;-87
2023/10/14 09:48:31;;;;;;;1.50;1.10;;;17.70;99.90;;;;;;4950345;28;20185;-87
2023/10/14 09:51:00;;;;;;;2.58;1.65;;;17.80;99.90;;;;;;4948731;28;20358;-88
2023/10/14 09:53:29;;;;;;;2.78;1.50;;;18.00;99.90;;;;;;4954584;28;20204;-88
2023/10/14 09:55:56;;;;;;;1.50;1.40;;;17.60;99.90;;;;;;4956598;28;20192;-88
2023/10/14 09:58:30;;;;;;;1.60;1.30;;;17.50;99.90;;;;;;4950627;28;20196;-88
2023/10/14 10:01:00;;;;;;;1.50;1.40;;;17.90;99.90;;;;;;4951840;28;20830;-87
2023/10/14 10:03:27;;;;;;;1.60;1.50;;;18.00;99.90;;;;;;4956086;28;20209;-87
2023/10/14 10:06:20;;;;;;;1.42;1.30;;;18.40;99.90;;;;;;4956084;28;20211;-88
2023/10/14 10:09:17;;;;;;;2.60;1.75;;;18.20;99.90;;;;;;4943985;28;20216;-88
2023/10/14 10:11:46;;;;;;;1.95;1.77;;;18.00;99.90;;;;;;4965842;28;20185;-88
2023/10/14 10:14:16;;;;;;;1.63;1.52;;;18.50;99.90;;;;;;4966631;28;20280;-88
2023/10/14 10:16:42;;;;;;;1.45;1.25;;;18.90;99.90;;;;;;4965467;28;20190;-88
2023/10/14 10:19:10;;;;;;;1.63;1.27;;;18.80;99.90;;;;;;4961977;28;20241;-90
2023/10/14 10:21:43;;;;;;;1.10;1.00;;;18.60;99.90;;;;;;4956932;28;20196;-88
2023/10/14 10:24:34;;;;;;;1.35;1.23;;;19.00;99.90;;;;;;4955508;28;20550;-91
2023/10/14 10:27:03;;;;;;;1.45;0.90;;;18.80;99.90;;;;;;4957856;28;20206;-91
2023/10/14 10:29:35;;;;;;;1.30;1.10;;;19.10;99.90;;;;;;4958063;28;20524;-91
2023/10/14 10:32:19;;;;;;;1.30;1.20;;;18.60;99.90;;;;;;4956621;28;20185;-88
2023/10/14 10:35:06;;;;;;;3.22;1.60;;;19.10;99.90;;;;;;4951990;28;20189;-86
2023/10/14 10:37:52;;;;;;;2.25;1.40;;;18.50;99.90;;;;;;4969162;28;20196;-90
2023/10/14 10:40:25;;;;;;;2.00;1.13;;;18.50;99.90;;;;;;4957009;28;20405;-91
2023/10/14 10:43:09;;;;;;;1.92;1.33;;;18.60;99.90;;;;;;4965329;28;20292;-91
2023/10/14 10:45:43;;;;;;;1.58;1.48;;;18.90;99.90;;;;;;4963794;28;20266;-89
2023/10/14 10:48:17;;;;;;;1.15;0.90;;;18.90;99.90;;;;;;4958091;28;20193;-90
2023/10/14 10:50:50;;;;;;;1.50;1.40;;;19.20;99.90;;;;;;4939008;28;20191;-91
2023/10/14 10:53:19;;;;;;;1.65;1.55;;;18.90;99.90;;;;;;4957631;28;21151;-90
2023/10/14 10:55:47;;;;;;;1.40;1.30;;;18.80;99.90;;;;;;4944003;28;20190;-88
2023/10/14 10:58:14;;;;;;;1.42;0.90;;;18.90;99.90;;;;;;4953313;28;20213;-89
2023/10/14 11:00:45;;;;;;;1.55;1.20;;;19.60;99.90;;;;;;4954584;28;20220;-89
2023/10/14 11:03:14;;;;;;;1.55;1.10;;;18.60;99.90;;;;;;4954383;28;20244;-89
2023/10/14 11:05:41;;;;;;;1.30;1.20;;;19.00;99.90;;;;;;4954586;28;20213;-89
2023/10/14 11:08:07;;;;;;;1.27;0.90;;;18.90;99.90;;;;;;4955437;28;20196;-89
2023/10/14 11:10:38;;;;;;;2.08;1.40;;;18.80;99.90;;;;;;4956666;28;20194;-89
2023/10/14 11:13:05;;;;;;;3.10;0.70;;;18.30;99.90;;;;;;4951556;28;20200;-89
2023/10/14 11:15:31;;;;;;;1.00;0.90;;;18.60;99.90;;;;;;4956743;28;20339;-89
2023/10/14 11:17:58;;;;;;;2.05;0.90;;;19.10;99.90;;;;;;4956551;28;20181;-88
2023/10/14 11:20:27;;;;;;;1.13;1.02;;;18.40;99.90;;;;;;4933654;28;20197;-88
2023/10/14 11:22:55;;;;;;;1.40;1.30;;;18.10;99.90;;;;;;4937611;28;20323;-88
2023/10/14 11:25:22;;;;;;;1.25;1.10;;;18.10;99.90;;;;;;4954878;28;20216;-88
2023/10/14 11:27:48;;;;;;;1.38;1.10;;;18.70;99.90;;;;;;4953370;28;20189;-89
2023/10/14 11:30:15;;;;;;;2.03;1.00;;;17.30;99.90;;;;;;4953548;28;20774;-88
2023/10/14 11:32:51;;;;;;;2.10;1.00;;;17.70;99.90;;;;;;4957909;28;20475;-88
2023/10/14 11:35:18;;;;;;;3.00;1.40;;;17.70;99.90;;;;;;4952363;28;20658;-88
2023/10/14 11:37:50;;;;;;;1.55;1.20;;;17.30;99.90;;;;;;4966697;28;20204;-89
2023/10/14 11:40:15;;;;;;;1.67;1.13;;;17.10;99.90;;;;;;4970096;28;20626;-88
2023/10/14 11:42:43;;;;;;;2.17;2.00;;;17.20;99.90;;;;;;4957267;28;20213;-88
2023/10/14 11:45:09;;;;;;;1.70;1.02;;;17.30;99.90;;;;;;4957622;28;20212;-88
2023/10/14 11:47:41;;;;;;;1.73;1.30;;;17.40;99.90;;;;;;4952605;28;20706;-88
2023/10/14 11:50:13;;;;;;;0.88;0.80;;;17.90;99.90;;;;;;4955728;28;20508;-88
2023/10/14 11:52:43;;;;;;;1.20;1.10;;;17.60;99.90;;;;;;4953902;28;20212;-89
2023/10/14 11:55:15;;;;;;;0.80;0.80;;;18.20;99.90;;;;;;4954519;28;20686;-89
2023/10/14 11:57:44;;;;;;;2.00;1.00;;;17.80;99.90;;;;;;4949607;28;20277;-88
2023/10/14 12:00:12;;;;;;;3.25;1.05;;;17.90;99.90;;;;;;4952788;28;20189;-88
2023/10/14 12:02:39;;;;;;;1.45;1.30;;;17.40;99.90;;;;;;4954519;28;20250;-88
2023/10/14 12:05:05;;;;;;;1.40;1.30;;;17.70;99.90;;;;;;4955086;28;20185;-88
2023/10/14 12:07:34;;;;;;;1.50;1.10;;;17.30;99.90;;;;;;4952671;28;20769;-89
2023/10/14 12:10:08;;;;;;;1.35;1.25;;;17.60;99.90;;;;;;4951596;28;20240;-87
2023/10/14 12:12:33;;;;;;;1.77;1.55;;;17.00;99.90;;;;;;4971418;28;20205;-88
2023/10/14 12:14:59;;;;;;;3.57;1.20;;;17.10;99.90;;;;;;4971564;28;20270;-88
2023/10/14 12:17:25;;;;;;;1.40;1.30;;;17.20;99.90;;;;;;4954172;28;20188;-88
2023/10/14 12:19:51;;;;;;;1.52;0.95;;;17.00;99.90;;;;;;4957081;28;20935;-88
2023/10/14 12:22:17;;;;;;;1.10;1.00;;;17.20;99.90;;;;;;4950620;28;20292;-89
2023/10/14 12:24:42;;;;;;;1.27;1.10;;;17.70;99.90;;;;;;4951353;28;20993;-88
2023/10/14 12:27:14;;;;;;;3.60;1.60;;;17.60;99.90;;;;;;4951749;28;20293;-89
2023/10/14 12:29:42;;;;;;;1.80;0.93;;;17.00;99.90;;;;;;4957416;28;20197;-88
2023/10/14 12:32:15;;;;;;;2.38;1.40;;;16.80;99.90;;;;;;4972527;28;20185;-88
2023/10/14 12:34:43;;;;;;;1.20;1.10;;;16.70;99.90;;;;;;4971452;28;20237;-88
2023/10/14 12:37:19;;;;;;;3.05;0.90;;;16.60;99.90;;;;;;4956599;28;20181;-88
2023/10/14 12:39:49;;;;;;;1.98;0.80;;;16.80;99.90;;;;;;4967718;28;20212;-89
2023/10/14 12:42:16;;;;;;;1.10;0.90;;;16.90;99.90;;;;;;4966183;28;20209;-89
2023/10/14 12:44:42;;;;;;;0.80;0.80;;;17.00;99.90;;;;;;4950929;28;20280;-88
2023/10/14 12:47:10;;;;;;;1.07;0.80;;;17.00;99.90;;;;;;4952414;28;20352;-88
2023/10/14 12:49:38;;;;;;;1.10;0.93;;;16.80;99.90;;;;;;4957237;28;20240;-89
2023/10/14 12:52:12;;;;;;;1.00;0.90;;;17.20;99.90;;;;;;4960035;28;20199;-88
2023/10/14 12:54:38;;;;;;;1.95;1.13;;;16.80;99.90;;;;;;4968652;28;20634;-88
2023/10/14 12:57:04;;;;;;;1.55;1.40;;;17.00;99.90;;;;;;4943240;28;20196;-88
2023/10/14 12:59:32;;;;;;;2.63;1.40;;;17.00;99.90;;;;;;4954447;28;20235;-88
2023/10/14 13:02:00;;;;;;;1.23;1.13;;;16.80;99.90;;;;;;4952931;28;20606;-88
2023/10/14 13:04:27;;;;;;;1.23;1.10;;;17.80;99.90;;;;;;4955239;28;20224;-88
2023/10/14 13:06:53;;;;;;;1.75;1.20;;;16.70;99.90;;;;;;4967027;28;20196;-89
2023/10/14 13:09:19;;;;;;;1.40;1.00;;;16.60;99.90;;;;;;4950328;29;20192;-89
2023/10/14 13:11:45;;;;;;;1.27;1.17;;;17.30;99.90;;;;;;4953878;28;20189;-88
2023/10/14 13:14:32;;;;;;;1.70;1.30;;;18.40;99.90;;;;;;4952307;28;20209;-88
2023/10/14 13:17:00;;;;;;;1.52;1.42;;;16.40;99.90;;;;;;4975542;28;20187;-89
2023/10/14 13:19:26;;;;;;;1.67;1.08;;;17.00;99.90;;;;;;4976790;28;20200;-88
2023/10/14 13:21:54;;;;;;;1.53;0.90;;;16.60;99.90;;;;;;4977857;28;20181;-88
2023/10/14 13:24:19;;;;;;;0.90;0.90;;;16.80;99.90;;;;;;4990802;28;20192;-88
2023/10/14 13:26:45;;;;;;;1.20;1.10;;;16.60;99.90;;;;;;4959047;28;20272;-89
2023/10/14 13:29:10;;;;;;;1.03;0.93;;;16.30;99.90;;;;;;4956020;28;20249;-89
2023/10/14 13:31:39;;;;;;;1.40;1.10;;;15.80;99.90;;;;;;4961988;28;20460;-89
2023/10/14 13:34:06;;;;;;;1.00;0.90;;;16.10;99.90;;;;;;4970694;28;20296;-88
2023/10/14 13:36:33;;;;;;;1.10;1.00;;;16.30;99.90;;;;;;4950779;28;20191;-88
2023/10/14 13:39:06;;;;;;;1.98;0.90;;;16.40;99.90;;;;;;4958455;28;20243;-88